Time;durP1;ratioP1;P1;durP2;ratioP2;P2;SDS_P1;SDS_P2;PMS_P1;PMS_P2;Temp;Humidity;BMP_temperature;BMP_pressure;BME280_temperature;BME280_humidity;BME280_pressure;Samples;Min_cycle;Max_cycle;Signal;HPM_P1;HPM_P2
2022/08/29 00:00:38;;;;;;;31.85;16.70;;;;;;;18.34;71.55;100344.23;1698237;84;21205;-57
2022/08/29 00:03:46;;;;;;;28.32;17.32;;;;;;;18.33;71.60;100338.91;1698313;84;21244;-57
2022/08/29 00:06:51;;;;;;;34.30;16.77;;;;;;;18.31;71.65;100341.05;1698270;84;21256;-57
2022/08/29 00:09:58;;;;;;;36.03;17.98;;;;;;;18.28;71.73;100343.75;1698247;84;21193;-55
2022/08/29 00:13:04;;;;;;;29.45;18.55;;;;;;;18.27;71.76;100339.27;1698139;84;21225;-56
2022/08/29 00:16:10;;;;;;;36.90;18.50;;;;;;;18.24;71.68;100340.25;1698263;83;21205;-56
2022/08/29 00:19:18;;;;;;;33.23;16.97;;;;;;;18.21;71.60;100342.09;1698308;83;21269;-57
2022/08/29 00:22:24;;;;;;;31.42;16.75;;;;;;;18.18;71.61;100337.01;1698408;84;21220;-56
2022/08/29 00:25:31;;;;;;;44.18;17.62;;;;;;;18.19;71.76;100342.88;1698327;84;21193;-56
2022/08/29 00:28:36;;;;;;;36.00;18.40;;;;;;;18.20;71.95;100342.65;1698285;84;21245;-56
2022/08/29 00:31:45;;;;;;;46.05;17.48;;;;;;;18.22;72.08;100339.09;1682022;84;21185;-57
2022/08/29 00:34:52;;;;;;;48.10;18.52;;;;;;;18.23;72.18;100342.20;1698324;84;21213;-56
2022/08/29 00:37:57;;;;;;;35.43;19.48;;;;;;;18.23;72.27;100335.27;1698347;84;21248;-55
2022/08/29 00:41:04;;;;;;;43.83;20.20;;;;;;;18.23;72.36;100340.81;1698442;84;21189;-56
2022/08/29 00:44:11;;;;;;;39.75;20.70;;;;;;;18.21;72.33;100347.11;1697036;84;21292;-56
2022/08/29 00:47:18;;;;;;;34.03;19.55;;;;;;;18.16;72.30;100344.16;1698846;84;21256;-56
2022/08/29 00:50:30;;;;;;;34.50;18.73;;;;;;;18.12;72.37;100342.07;1698855;84;21745;-57
2022/08/29 00:53:39;;;;;;;35.55;17.65;;;;;;;18.09;72.36;100343.91;1698818;84;21600;-56
2022/08/29 00:56:47;;;;;;;39.45;18.98;;;;;;;18.04;72.22;100346.50;1698866;84;21221;-55
2022/08/29 00:59:52;;;;;;;36.65;18.45;;;;;;;17.99;72.14;100349.09;1698807;84;21213;-55
2022/08/29 01:02:59;;;;;;;39.23;18.65;;;;;;;17.95;72.25;100345.91;1698868;84;21423;-55
2022/08/29 01:06:05;;;;;;;39.75;18.40;;;;;;;17.94;72.41;100345.62;1698780;84;21213;-55
2022/08/29 01:09:12;;;;;;;33.48;18.67;;;;;;;17.93;72.57;100341.69;1698758;84;21291;-56
2022/08/29 01:12:19;;;;;;;49.60;19.30;;;;;;;17.90;72.67;100338.84;1698787;84;21201;-56
2022/08/29 01:15:29;;;;;;;38.20;18.37;;;;;;;17.89;72.78;100349.59;1698823;84;21220;-57
2022/08/29 01:18:37;;;;;;;38.50;19.02;;;;;;;17.88;72.86;100343.22;1698807;84;21220;-56
2022/08/29 01:22:01;;;;;;;44.60;16.95;;;;;;;17.87;72.90;100337.88;1698818;84;21344;-57
2022/08/29 01:25:06;;;;;;;47.60;16.73;;;;;;;17.84;72.89;100335.03;1698905;84;21217;-57
2022/08/29 01:28:34;;;;;;;34.00;16.87;;;;;;;17.82;72.92;100332.19;1698811;84;21268;-56
2022/08/29 01:31:48;;;;;;;34.98;15.93;;;;;;;17.78;72.92;100333.16;1698923;84;21252;-56
2022/08/29 01:34:56;;;;;;;36.20;15.30;;;;;;;17.75;72.95;100330.84;1698897;84;21201;-56
2022/08/29 01:38:02;;;;;;;41.42;16.30;;;;;;;17.71;72.99;100325.98;1698881;84;21205;-56
2022/08/29 01:41:09;;;;;;;24.15;14.50;;;;;;;17.68;73.02;100323.62;1698888;84;21260;-56
2022/08/29 01:44:20;;;;;;;26.42;14.23;;;;;;;17.64;73.04;100327.41;1698830;84;21213;-58
2022/08/29 01:47:26;;;;;;;23.87;13.48;;;;;;;17.62;73.10;100322.62;1695422;84;21225;-57
2022/08/29 01:50:31;;;;;;;23.20;14.35;;;;;;;17.57;73.12;100322.44;1698327;84;21228;-56
2022/08/29 01:53:38;;;;;;;21.57;14.53;;;;;;;17.55;73.15;100319.59;1698401;84;21225;-56
2022/08/29 01:56:48;;;;;;;20.30;13.50;;;;;;;17.51;73.18;100327.48;1698399;84;21197;-57
2022/08/29 01:59:54;;;;;;;19.65;13.28;;;;;;;17.46;73.22;100339.75;1698299;84;21186;-57
2022/08/29 02:03:01;;;;;;;14.90;12.90;;;;;;;17.42;73.28;100341.24;1698377;84;21268;-57
2022/08/29 02:06:10;;;;;;;19.07;13.35;;;;;;;17.40;73.35;100338.36;1698327;84;21212;-58
2022/08/29 02:09:16;;;;;;;44.75;13.45;;;;;;;17.35;73.17;100349.23;1682164;84;21194;-58
2022/08/29 02:12:22;;;;;;;29.95;13.00;;;;;;;17.29;73.15;100348.74;1698323;84;21245;-58
2022/08/29 02:15:30;;;;;;;21.17;12.88;;;;;;;17.25;73.22;100348.33;1698210;84;21224;-57
2022/08/29 02:18:35;;;;;;;23.25;13.78;;;;;;;17.26;73.39;100356.10;1698312;84;21252;-58
2022/08/29 02:21:43;;;;;;;23.80;12.73;;;;;;;17.25;73.48;100351.65;1698310;84;21276;-56
2022/08/29 02:24:49;;;;;;;24.67;13.43;;;;;;;17.26;73.60;100357.48;1698256;84;21221;-57
2022/08/29 02:27:56;;;;;;;27.37;12.98;;;;;;;17.26;73.68;100360.25;1698265;84;21225;-57
2022/08/29 02:31:01;;;;;;;22.05;12.03;;;;;;;17.25;73.72;100363.55;1698270;84;21225;-58
2022/08/29 02:34:07;;;;;;;28.90;13.40;;;;;;;17.24;73.75;100374.83;1698307;84;21315;-57
2022/08/29 02:37:14;;;;;;;17.95;12.88;;;;;;;17.22;73.82;100381.14;1698390;84;21284;-57
2022/08/29 02:40:21;;;;;;;20.70;12.98;;;;;;;17.19;73.85;100382.41;1698390;84;21209;-56
2022/08/29 02:43:29;;;;;;;25.75;13.38;;;;;;;17.14;73.71;100386.91;1698275;84;21209;-57
2022/08/29 02:46:34;;;;;;;27.93;13.70;;;;;;;17.11;73.69;100390.95;1698741;82;21269;-57
2022/08/29 02:49:41;;;;;;;13.85;12.35;;;;;;;17.11;73.87;100387.36;1698899;84;21267;-57
2022/08/29 02:52:50;;;;;;;23.92;12.50;;;;;;;17.10;73.99;100387.88;1698802;84;21232;-57
2022/08/29 02:55:56;;;;;;;15.00;13.28;;;;;;;17.10;74.09;100392.55;1698863;84;21324;-57
2022/08/29 02:59:01;;;;;;;14.75;13.10;;;;;;;17.09;74.13;100404.70;1698842;84;21308;-57
2022/08/29 03:02:08;;;;;;;15.40;12.70;;;;;;;17.05;74.11;100407.04;1698759;84;21205;-58
2022/08/29 03:05:15;;;;;;;16.52;12.28;;;;;;;17.03;74.21;100404.19;1698735;84;21232;-60
2022/08/29 03:08:21;;;;;;;13.60;12.25;;;;;;;17.01;74.26;100412.70;1699914;84;21670;-58
2022/08/29 03:11:28;;;;;;;14.40;13.03;;;;;;;17.00;74.23;100422.60;1698915;84;21201;-56
2022/08/29 03:14:35;;;;;;;15.50;13.88;;;;;;;16.98;74.31;100420.02;1698774;84;21201;-58
2022/08/29 03:17:42;;;;;;;14.78;13.28;;;;;;;16.98;74.42;100419.20;1698784;84;21316;-59
2022/08/29 03:20:47;;;;;;;14.63;13.15;;;;;;;16.99;74.50;100427.27;1698757;84;21207;-58
2022/08/29 03:23:58;;;;;;;15.50;13.83;;;;;;;17.00;74.54;100430.90;1698713;84;21233;-58
2022/08/29 03:27:03;;;;;;;15.68;12.78;;;;;;;17.00;74.61;100436.43;1698713;84;21249;-59
2022/08/29 03:30:08;;;;;;;17.80;14.20;;;;;;;17.03;74.68;100440.14;1698796;84;21173;-59
2022/08/29 03:33:14;;;;;;;14.87;13.28;;;;;;;17.04;74.69;100438.55;1698804;84;21217;-58
2022/08/29 03:36:20;;;;;;;15.48;13.43;;;;;;;17.05;74.59;100446.28;1698913;84;21201;-59
2022/08/29 03:39:26;;;;;;;14.95;13.35;;;;;;;17.05;74.54;100440.75;1698748;84;21209;-58
2022/08/29 03:42:32;;;;;;;15.23;13.60;;;;;;;17.08;74.59;100445.85;1698721;84;21209;-59
2022/08/29 03:45:38;;;;;;;15.38;13.88;;;;;;;17.12;74.62;100445.75;1698719;84;21213;-59
2022/08/29 03:48:45;;;;;;;15.63;13.28;;;;;;;17.18;74.73;100450.41;1696819;83;21244;-59
2022/08/29 03:51:53;;;;;;;15.55;13.98;;;;;;;17.27;74.91;100448.58;1690716;84;21879;-59
2022/08/29 03:54:59;;;;;;;17.85;15.15;;;;;;;17.39;75.05;100454.30;1685708;85;21223;-59
2022/08/29 03:58:06;;;;;;;22.25;19.85;;;;;;;17.48;75.15;100457.16;1692470;84;21236;-58
2022/08/29 04:01:12;;;;;;;24.23;19.20;;;;;;;17.57;75.19;100459.47;1686162;85;21196;-59
2022/08/29 04:07:55;;;;;;;22.25;19.10;;;;;;;17.72;75.21;100462.83;1683854;84;21267;-58
2022/08/29 04:11:02;;;;;;;21.40;18.52;;;;;;;17.81;75.26;100463.40;1687004;85;21212;-58
2022/08/29 04:14:10;;;;;;;25.82;20.55;;;;;;;17.89;75.31;100463.15;1687138;85;21401;-58
2022/08/29 04:17:18;;;;;;;24.35;21.42;;;;;;;17.96;75.34;100470.91;1687046;85;21324;-59
2022/08/29 04:20:25;;;;;;;26.33;22.58;;;;;;;17.99;75.29;100464.06;1687229;85;21338;-58
2022/08/29 04:23:31;;;;;;;31.23;26.37;;;;;;;18.03;75.32;100465.33;1686845;85;21757;-59
2022/08/29 04:26:37;;;;;;;36.98;27.75;;;;;;;18.08;75.37;100476.05;1687126;85;21283;-59
2022/08/29 04:29:42;;;;;;;34.20;28.40;;;;;;;18.15;75.38;100485.70;1687122;85;21204;-58
2022/08/29 04:32:48;;;;;;;30.70;25.57;;;;;;;18.21;75.42;100478.73;1690587;84;21305;-57
2022/08/29 04:35:53;;;;;;;29.72;24.12;;;;;;;18.29;75.42;100488.70;1686366;85;21757;-58
2022/08/29 04:38:59;;;;;;;31.17;24.20;;;;;;;18.37;75.41;100487.91;1686846;85;21299;-58
2022/08/29 04:42:05;;;;;;;26.50;20.57;;;;;;;18.41;75.43;100476.70;1687149;85;21353;-58
2022/08/29 04:45:14;;;;;;;23.22;18.40;;;;;;;18.50;75.47;100476.77;1695241;84;21296;-58
2022/08/29 04:48:20;;;;;;;19.90;17.80;;;;;;;18.56;75.51;100483.32;1698690;84;21256;-58
2022/08/29 04:51:27;;;;;;;22.65;17.82;;;;;;;18.62;75.56;100478.25;1669582;85;21260;-58
2022/08/29 04:54:33;;;;;;;23.05;18.17;;;;;;;18.69;75.55;100483.22;1665202;84;21237;-58
2022/08/29 04:57:38;;;;;;;22.37;18.77;;;;;;;18.76;75.56;100479.84;1661312;85;21327;-59
2022/08/29 05:00:44;;;;;;;23.05;17.95;;;;;;;18.87;75.54;100481.34;1673662;86;21284;-58
2022/08/29 05:03:51;;;;;;;20.95;16.90;;;;;;;18.98;75.54;100475.61;1672786;86;21225;-62
2022/08/29 05:06:57;;;;;;;24.87;17.60;;;;;;;19.14;75.72;100484.19;1672974;85;21872;-61
2022/08/29 05:10:06;;;;;;;19.92;17.30;;;;;;;19.30;75.72;100487.78;1657699;86;21206;-60
2022/08/29 05:13:13;;;;;;;22.13;17.90;;;;;;;19.43;75.80;100479.84;1659209;85;21786;-59
2022/08/29 05:16:20;;;;;;;22.32;18.57;;;;;;;19.57;75.90;100474.45;1666312;85;21286;-59
2022/08/29 05:19:27;;;;;;;27.82;20.60;;;;;;;19.68;75.96;100475.05;1643941;87;21237;-58
2022/08/29 05:22:33;;;;;;;28.55;21.93;;;;;;;19.80;76.06;100480.16;1643888;87;21304;-57
2022/08/29 05:25:39;;;;;;;22.07;18.98;;;;;;;19.95;76.12;100475.03;1670013;86;21193;-58
2022/08/29 05:28:48;;;;;;;23.60;18.90;;;;;;;20.11;76.16;100474.37;1662698;84;21233;-57
2022/08/29 05:31:57;;;;;;;24.63;18.98;;;;;;;20.30;76.24;100472.41;1665441;85;21205;-57
2022/08/29 05:35:02;;;;;;;25.35;19.25;;;;;;;20.51;76.27;100478.84;1661735;86;21192;-58
2022/08/29 05:38:09;;;;;;;26.40;19.42;;;;;;;20.72;76.37;100477.72;1653335;86;21244;-58
2022/08/29 05:41:18;;;;;;;24.77;18.00;;;;;;;20.93;76.41;100465.16;1648627;86;21216;-57
2022/08/29 05:44:23;;;;;;;22.70;16.52;;;;;;;21.12;76.47;100459.81;1656942;84;21224;-58
2022/08/29 05:47:31;;;;;;;27.07;16.60;;;;;;;21.32;76.47;100470.59;1654621;84;21643;-58
2022/08/29 05:50:36;;;;;;;20.00;16.10;;;;;;;21.49;76.46;100466.81;1669964;83;21243;-59
2022/08/29 05:53:42;;;;;;;41.08;16.87;;;;;;;21.69;76.41;100460.85;1720995;83;21787;-58
2022/08/29 05:56:49;;;;;;;27.93;15.53;;;;;;;21.85;76.31;100465.13;1720162;83;21832;-59
2022/08/29 05:59:58;;;;;;;33.92;21.05;;;;;;;21.99;76.31;100465.13;1719768;83;21231;-58
2022/08/29 06:03:03;;;;;;;18.90;14.50;;;;;;;22.08;76.28;100465.59;1720537;83;21208;-58
2022/08/29 06:06:09;;;;;;;23.30;13.90;;;;;;;22.18;76.27;100464.41;1718173;83;21233;-59
2022/08/29 06:09:17;;;;;;;22.07;14.35;;;;;;;22.26;76.20;100468.73;1722192;83;21180;-57
2022/08/29 06:12:23;;;;;;;17.82;13.13;;;;;;;22.33;76.17;100467.48;1683225;85;21247;-58
2022/08/29 06:15:29;;;;;;;19.50;14.23;;;;;;;22.41;76.22;100462.89;1698373;84;21767;-58
2022/08/29 06:18:35;;;;;;;16.00;13.00;;;;;;;22.49;76.27;100470.00;1688868;83;21862;-59
2022/08/29 06:21:40;;;;;;;19.30;12.82;;;;;;;22.58;76.33;100469.94;1717979;83;21203;-59
2022/08/29 06:24:47;;;;;;;18.23;12.45;;;;;;;22.71;76.40;100469.58;1694051;82;21333;-58
2022/08/29 06:28:06;;;;;;;19.67;11.38;;;;;;;22.82;76.41;100478.43;1715358;83;21792;-59
2022/08/29 06:35:34;;;;;;;13.18;9.05;;;;;;;23.03;76.36;100487.45;1638035;86;21212;-59
2022/08/29 06:39:47;;;;;;;;;;;;;;;;;;;;;
2022/08/29 06:43:04;;;;;;;14.00;8.85;;;;;;;23.23;76.20;100500.37;1669634;86;21361;-54
2022/08/29 06:47:03;;;;;;;21.02;9.58;;;;;;;23.30;76.15;100496.86;1662379;84;21263;-56
2022/08/29 06:50:27;;;;;;;13.45;8.38;;;;;;;23.36;76.11;100491.64;1620695;86;21375;-55
2022/08/29 07:04:09;;;;;;;11.93;8.25;;;;;;;23.56;75.95;100496.16;1795711;78;23205;-54
2022/08/29 07:07:18;;;;;;;12.23;7.25;;;;;;;23.49;75.92;100499.13;1806479;79;21200;-55
2022/08/29 07:10:30;;;;;;;;;;;;;;;23.51;75.89;100501.66;1794209;79;21258;-57
2022/08/29 07:13:38;;;;;;;10.93;5.62;;;;;;;23.56;75.84;100498.95;1795157;78;20230;-56
2022/08/29 07:16:54;;;;;;;11.57;6.05;;;;;;;23.63;75.81;100499.05;1810606;78;21377;-58
2022/08/29 07:20:16;;;;;;;14.63;6.53;;;;;;;23.71;75.60;100505.28;1801692;77;21203;-58
2022/08/29 07:23:24;;;;;;;17.57;6.55;;;;;;;23.75;75.45;100507.87;1782193;79;21201;-58
2022/08/29 07:26:42;;;;;;;11.10;6.00;;;;;;;23.81;75.41;100507.68;1798394;77;21212;-59
2022/08/29 07:29:47;;;;;;;10.10;5.62;;;;;;;23.89;75.37;100507.78;1799552;77;21745;-58
2022/08/29 07:32:55;;;;;;;11.50;5.78;;;;;;;23.97;75.22;100508.76;1775655;79;21207;-58
2022/08/29 07:36:03;;;;;;;12.03;5.58;;;;;;;24.03;75.11;100508.56;1804809;77;21231;-55
2022/08/29 07:39:17;;;;;;;12.43;5.15;;;;;;;24.10;74.98;100510.59;1808389;77;21803;-60
2022/08/29 07:42:30;;;;;;;9.90;5.50;;;;;;;24.18;74.84;100510.13;1813524;77;21407;-59
2022/08/29 07:45:38;;;;;;;14.78;6.53;;;;;;;24.26;74.68;100511.07;1815692;77;21193;-59
2022/08/29 07:48:44;;;;;;;13.15;6.75;;;;;;;24.33;74.54;100510.33;1795702;77;21251;-60
2022/08/29 07:51:50;;;;;;;8.65;4.83;;;;;;;24.40;74.38;100515.18;1797694;78;21212;-58
2022/08/29 07:55:04;;;;;;;8.90;5.05;;;;;;;24.50;74.33;100514.41;1806771;79;21161;-60
2022/08/29 07:58:14;;;;;;;11.03;4.92;;;;;;;24.59;74.27;100517.05;1781633;79;21777;-57
2022/08/29 08:01:18;;;;;;;11.00;5.35;;;;;;;24.66;74.11;100517.67;1801529;79;21180;-57
2022/08/29 08:04:25;;;;;;;13.83;6.40;;;;;;;24.73;73.94;100515.55;1754540;79;21276;-58
2022/08/29 08:07:33;;;;;;;9.35;4.60;;;;;;;24.81;73.86;100515.06;1718839;82;21466;-58
2022/08/29 08:10:41;;;;;;;10.78;5.08;;;;;;;24.90;73.72;100519.92;1798678;79;21195;-58
2022/08/29 08:13:48;;;;;;;9.20;4.72;;;;;;;24.99;73.54;100520.26;1754779;80;21207;-59
2022/08/29 08:16:54;;;;;;;11.25;4.75;;;;;;;25.07;73.39;100521.75;1798636;79;21200;-59
2022/08/29 08:20:01;;;;;;;11.73;5.87;;;;;;;25.16;73.28;100516.79;1743563;82;21270;-59
2022/08/29 08:23:08;;;;;;;17.62;5.85;;;;;;;25.24;73.11;100513.49;1743656;82;21402;-58
2022/08/29 08:26:16;;;;;;;12.40;5.40;;;;;;;25.32;73.00;100518.60;1763249;80;21215;-56
2022/08/29 08:29:25;;;;;;;11.10;5.92;;;;;;;25.40;72.90;100515.88;1813144;79;21188;-58
2022/08/29 08:32:33;;;;;;;9.85;5.58;;;;;;;25.49;72.75;100510.05;1755080;80;21215;-58
2022/08/29 08:35:42;;;;;;;15.85;5.47;;;;;;;25.61;72.60;100516.31;1799043;79;21202;-58
2022/08/29 08:38:49;;;;;;;12.30;6.40;;;;;;;25.71;72.46;100520.01;1717151;83;21760;-57
2022/08/29 08:42:13;;;;;;;8.75;5.62;;;;;;;25.78;72.25;100514.98;1746400;80;21243;-58
2022/08/29 08:45:30;;;;;;;16.00;5.75;;;;;;;25.87;72.07;100512.52;1756068;80;21184;-57
2022/08/29 08:48:43;;;;;;;11.83;6.37;;;;;;;25.98;71.85;100518.47;1736717;80;21744;-58
2022/08/29 08:51:52;;;;;;;10.40;5.80;;;;;;;26.07;71.76;100509.83;1751231;80;21243;-58
2022/08/29 08:55:02;;;;;;;8.28;5.37;;;;;;;26.18;71.66;100508.20;1738657;80;21585;-57
2022/08/29 08:58:31;;;;;;;11.40;5.78;;;;;;;26.29;71.54;100504.31;1752954;80;21263;-58
2022/08/29 09:01:46;;;;;;;14.90;5.25;;;;;;;26.37;71.33;100508.53;1742519;80;21816;-58
2022/08/29 09:05:30;;;;;;;14.63;7.67;;;;;;;26.46;71.05;100504.91;1722926;81;21248;-59
2022/08/29 09:08:53;;;;;;;10.68;5.25;;;;;;;26.57;70.82;100507.76;1720892;80;21290;-59
2022/08/29 09:12:27;;;;;;;10.05;5.10;;;;;;;26.67;70.54;100501.63;1717320;83;22100;-59
2022/08/29 09:15:44;;;;;;;12.77;5.07;;;;;;;26.77;70.25;100503.60;1717804;83;21262;-58
2022/08/29 09:18:50;;;;;;;9.48;5.50;;;;;;;26.90;70.10;100504.47;1717894;83;21715;-59
2022/08/29 09:22:00;;;;;;;11.80;5.50;;;;;;;27.00;69.89;100508.70;1776262;79;21717;-58
2022/08/29 09:25:14;;;;;;;9.68;5.30;;;;;;;27.08;69.66;100494.09;1774923;80;21188;-58
2022/08/29 09:28:22;;;;;;;22.25;6.05;;;;;;;27.16;69.46;100492.13;1775160;80;21597;-58
2022/08/29 09:31:40;;;;;;;11.43;6.15;;;;;;;27.24;69.14;100499.41;1745947;82;21347;-59
2022/08/29 09:34:50;;;;;;;10.25;5.65;;;;;;;27.31;68.85;100500.00;1806600;79;21239;-57
2022/08/29 09:38:07;;;;;;;12.33;5.35;;;;;;;27.38;68.52;100496.91;1777909;79;21262;-58
2022/08/29 09:41:15;;;;;;;11.68;5.45;;;;;;;27.42;68.23;100497.46;1774312;80;21419;-59
2022/08/29 09:44:36;;;;;;;9.58;5.12;;;;;;;27.51;67.97;100500.55;1716408;83;21315;-58
2022/08/29 09:47:44;;;;;;;13.90;6.20;;;;;;;27.59;67.72;100502.20;1746547;82;21203;-58
2022/08/29 09:50:47;;;;;;;11.50;6.33;;;;;;;27.72;67.65;100507.80;1746541;82;21196;-58
2022/08/29 09:53:52;;;;;;;15.78;6.53;;;;;;;27.85;67.39;100507.20;1734068;82;21275;-59
2022/08/29 09:57:19;;;;;;;11.40;5.67;;;;;;;27.96;67.09;100508.03;1768364;80;21828;-58
2022/08/29 10:00:28;;;;;;;11.97;6.00;;;;;;;28.02;66.71;100503.52;1785475;80;21544;-58
2022/08/29 10:03:35;;;;;;;12.23;5.83;;;;;;;28.07;66.32;100499.86;1760976;80;21763;-59
2022/08/29 10:06:44;;;;;;;19.60;6.45;;;;;;;28.13;66.12;100500.94;1779294;79;21243;-60
2022/08/29 10:09:55;;;;;;;11.53;6.20;;;;;;;28.21;65.92;100497.52;1762640;81;21778;-59
2022/08/29 10:13:21;;;;;;;11.63;6.50;;;;;;;28.31;65.67;100498.03;1780093;79;21271;-59
2022/08/29 10:16:44;;;;;;;11.35;6.15;;;;;;;28.38;65.32;100499.42;1821900;77;21702;-60
2022/08/29 10:19:49;;;;;;;9.28;5.90;;;;;;;28.47;64.97;100493.45;1812691;77;21586;-58
2022/08/29 10:23:09;;;;;;;13.18;6.70;;;;;;;28.58;64.68;100490.02;1788012;79;21311;-61
2022/08/29 10:26:28;;;;;;;11.08;6.67;;;;;;;28.67;64.36;100486.30;1806530;79;21180;-60
2022/08/29 10:29:53;;;;;;;11.88;7.05;;;;;;;28.78;64.00;100481.45;1778106;77;21234;-60
2022/08/29 10:33:28;;;;;;;16.82;6.20;;;;;;;28.87;63.65;100482.50;1786083;79;21843;-60
2022/08/29 10:36:44;;;;;;;14.10;6.85;;;;;;;28.96;63.38;100480.73;1761693;80;21239;-57
2022/08/29 10:40:07;;;;;;;11.18;5.95;;;;;;;29.04;63.03;100481.51;1811415;77;21176;-57
2022/08/29 10:43:39;;;;;;;10.55;6.50;;;;;;;29.13;62.80;100471.30;1773857;80;21709;-57
2022/08/29 10:47:10;;;;;;;10.63;6.55;;;;;;;29.25;62.51;100473.19;1789651;77;21729;-57
2022/08/29 10:51:01;;;;;;;10.95;6.45;;;;;;;29.38;61.96;100483.78;1832236;78;21576;-57
2022/08/29 10:54:27;;;;;;;11.30;6.05;;;;;;;29.47;61.46;100479.73;1718958;83;21260;-58
2022/08/29 10:58:07;;;;;;;11.33;5.90;;;;;;;29.60;61.17;100476.21;1651567;85;21242;-56
2022/08/29 11:01:39;;;;;;;13.32;6.28;;;;;;;29.78;60.98;100474.89;1710493;83;21223;-58
2022/08/29 11:04:44;;;;;;;11.20;5.78;;;;;;;29.98;60.63;100475.23;1718376;82;21459;-58
2022/08/29 11:08:02;;;;;;;;;;;;;;;30.16;60.36;100478.09;1718920;82;22053;-58
2022/08/29 11:10:57;;;;;;;11.45;5.90;;;;;;;30.30;60.01;100470.58;1715012;82;20494;-60
2022/08/29 11:14:03;;;;;;;9.65;5.78;;;;;;;30.46;59.64;100473.47;1701752;83;21238;-58
2022/08/29 11:16:57;;;;;;;15.18;7.00;;;;;;;30.59;59.34;100472.71;1726188;82;21280;-58
2022/08/29 11:20:14;;;;;;;17.73;6.65;;;;;;;30.77;59.00;100473.04;1709249;83;21217;-59
2022/08/29 11:23:40;;;;;;;14.43;6.15;;;;;;;30.93;58.79;100470.23;1710710;84;21200;-59
2022/08/29 11:26:56;;;;;;;13.90;6.00;;;;;;;30.91;58.08;100458.38;1695063;83;21254;-58
2022/08/29 11:30:17;;;;;;;14.07;7.20;;;;;;;30.80;57.50;100462.52;1715791;82;21210;-58
2022/08/29 11:33:56;;;;;;;9.40;5.80;;;;;;;30.87;57.30;100451.68;1711854;83;21847;-58
2022/08/29 11:37:31;;;;;;;12.55;6.10;;;;;;;30.92;56.81;100451.60;1670074;85;21726;-57
2022/08/29 11:41:01;;;;;;;13.98;6.72;;;;;;;31.10;56.46;100457.21;1678656;85;21216;-61
2022/08/29 11:44:19;;;;;;;15.38;6.10;;;;;;;31.23;56.17;100450.77;1677189;85;21238;-62
2022/08/29 11:47:56;;;;;;;11.35;6.37;;;;;;;31.27;55.36;100448.16;1677383;85;21224;-59
2022/08/29 11:51:03;;;;;;;12.55;6.42;;;;;;;31.19;54.96;100449.69;1703158;82;21239;-60
2022/08/29 11:54:32;;;;;;;10.35;6.20;;;;;;;31.20;54.55;100454.21;1734776;80;21232;-52
2022/08/29 11:57:44;;;;;;;11.25;6.15;;;;;;;30.99;53.61;100453.44;1736295;82;21556;-59
2022/08/29 12:00:58;;;;;;;13.35;6.60;;;;;;;30.99;53.61;100453.44;1736372;82;21334;-57
2022/08/29 12:04:07;;;;;;;10.48;6.53;;;;;;;30.83;53.37;100459.11;1719500;82;21366;-58
2022/08/29 12:07:15;;;;;;;36.68;20.25;;;;;;;30.68;53.03;100452.23;1678996;85;21214;-58
2022/08/29 12:10:33;;;;;;;25.85;15.70;;;;;;;30.57;52.71;100446.73;1679434;85;21202;-60
2022/08/29 12:14:01;;;;;;;16.65;8.60;;;;;;;30.47;52.46;100444.08;1680301;85;21760;-57
2022/08/29 12:17:11;;;;;;;13.22;7.53;;;;;;;30.60;52.43;100448.13;1678869;84;21215;-56
2022/08/29 12:20:23;;;;;;;;;;;;;;;30.80;52.18;100451.22;1686478;84;21375;-57
2022/08/29 12:23:32;;;;;;;12.88;6.95;;;;;;;30.95;51.96;100448.16;1714411;82;20212;-56
2022/08/29 12:26:50;;;;;;;16.55;7.60;;;;;;;31.07;51.70;100445.66;1706752;84;21258;-56
2022/08/29 12:29:56;;;;;;;14.50;6.60;;;;;;;31.15;51.42;100440.72;1740670;82;21202;-55
2022/08/29 12:33:18;;;;;;;11.20;6.42;;;;;;;31.20;51.00;100440.06;1682512;85;21256;-57
2022/08/29 12:36:46;;;;;;;;;;;;;;;31.18;50.63;100445.75;1692681;82;21300;-56
2022/08/29 12:40:14;;;;;;;17.02;7.42;;;;;;;31.15;50.29;100442.13;1709231;84;20232;-56
2022/08/29 12:43:43;;;;;;;10.98;6.90;;;;;;;31.10;49.95;100435.14;1678637;84;21823;-57
2022/08/29 12:46:55;;;;;;;12.88;7.10;;;;;;;31.11;49.66;100441.09;1651534;86;21261;-56
2022/08/29 12:50:05;;;;;;;14.95;7.15;;;;;;;31.10;49.29;100440.80;1699132;83;21283;-58
2022/08/29 12:53:28;;;;;;;14.28;7.00;;;;;;;31.12;48.98;100437.09;1705432;82;21242;-57
2022/08/29 12:56:35;;;;;;;10.50;7.72;;;;;;;31.14;48.62;100440.47;1633795;86;21289;-57
2022/08/29 12:59:52;;;;;;;15.68;7.80;;;;;;;31.08;48.29;100434.64;1663715;85;21214;-57
2022/08/29 13:03:14;;;;;;;10.40;7.15;;;;;;;31.06;48.08;100427.88;1664390;85;21260;-56
2022/08/29 13:06:24;;;;;;;13.50;6.78;;;;;;;31.08;47.67;100433.22;1686854;84;21206;-56
2022/08/29 13:09:40;;;;;;;13.20;6.83;;;;;;;31.08;47.36;100432.63;1694061;83;21238;-56
2022/08/29 13:12:47;;;;;;;17.57;6.70;;;;;;;31.07;47.00;100415.97;1684826;83;21287;-60
2022/08/29 13:15:57;;;;;;;10.68;6.62;;;;;;;31.06;46.72;100427.03;1658145;85;21274;-57
2022/08/29 13:19:07;;;;;;;19.67;11.30;;;;;;;31.05;46.38;100428.19;1659532;85;21316;-59
2022/08/29 13:22:19;;;;;;;16.05;7.05;;;;;;;31.03;46.08;100423.41;1663867;85;21223;-58
2022/08/29 13:25:27;;;;;;;11.33;7.53;;;;;;;31.02;45.81;100416.05;1636451;86;21325;-58
2022/08/29 13:28:49;;;;;;;14.70;8.00;;;;;;;30.98;45.56;100419.25;1633694;86;21253;-58
2022/08/29 13:32:16;;;;;;;15.48;8.23;;;;;;;30.88;45.37;100425.07;1664432;86;21214;-58
2022/08/29 13:35:26;;;;;;;16.52;8.60;;;;;;;30.81;45.10;100427.47;1677234;83;21676;-55
2022/08/29 13:38:34;;;;;;;;;;;;;;;30.80;45.04;100429.45;1662786;85;21251;-58
2022/08/29 13:41:40;;;;;;;14.00;8.28;;;;;;;30.83;44.85;100426.59;1638073;86;20568;-56
2022/08/29 13:45:11;;;;;;;13.18;7.67;;;;;;;30.83;44.71;100425.19;1663177;85;21237;-58
2022/08/29 13:48:23;;;;;;;20.00;8.20;;;;;;;30.80;44.45;100421.52;1661762;85;21775;-58
2022/08/29 13:51:30;;;;;;;10.65;8.05;;;;;;;30.74;44.30;100418.49;1693301;84;21517;-59
2022/08/29 13:54:43;;;;;;;14.10;7.70;;;;;;;30.74;44.10;100417.93;1692658;82;21297;-57
2022/08/29 13:57:51;;;;;;;14.50;8.13;;;;;;;30.73;43.87;100412.58;1691697;84;21236;-59
2022/08/29 14:01:00;;;;;;;11.45;7.65;;;;;;;30.71;43.71;100414.88;1691242;83;21751;-56
2022/08/29 14:04:10;;;;;;;8.50;6.10;;;;;;;30.74;43.54;100414.25;1690515;84;21234;-57
2022/08/29 14:07:24;;;;;;;9.55;6.42;;;;;;;30.74;43.27;100410.86;1676974;84;21257;-56
2022/08/29 14:10:33;;;;;;;13.88;6.95;;;;;;;30.71;42.97;100409.22;1692362;83;21226;-57
2022/08/29 14:13:38;;;;;;;8.60;5.72;;;;;;;30.68;42.77;100415.48;1683343;83;21252;-56
2022/08/29 14:16:44;;;;;;;11.73;6.78;;;;;;;30.62;42.62;100405.67;1653640;85;21736;-59
2022/08/29 14:19:49;;;;;;;10.03;6.45;;;;;;;30.62;42.62;100405.67;1658819;85;21608;-59
2022/08/29 14:22:56;;;;;;;14.95;6.65;;;;;;;30.60;42.17;100406.55;1661274;85;21289;-58
2022/08/29 14:26:03;;;;;;;11.45;6.85;;;;;;;30.58;42.00;100409.42;1642002;86;21268;-58
2022/08/29 14:29:12;;;;;;;9.00;5.58;;;;;;;30.53;41.74;100406.11;1662053;85;21253;-59
2022/08/29 14:32:18;;;;;;;10.75;6.53;;;;;;;30.50;41.60;100404.47;1660474;85;21604;-59
2022/08/29 14:35:24;;;;;;;11.78;6.58;;;;;;;30.48;41.19;100410.42;1662294;85;21218;-59
2022/08/29 14:38:32;;;;;;;10.53;6.47;;;;;;;30.48;41.19;100410.42;1657642;85;21573;-58
2022/08/29 14:41:37;;;;;;;11.88;6.50;;;;;;;30.44;41.25;100409.38;1658753;85;21214;-58
2022/08/29 14:44:43;;;;;;;12.78;6.55;;;;;;;30.42;41.02;100414.48;1643091;87;21200;-59
2022/08/29 14:47:50;;;;;;;9.45;5.78;;;;;;;30.39;40.79;100419.33;1619032;88;21305;-59
2022/08/29 14:50:55;;;;;;;10.85;6.15;;;;;;;30.35;40.65;100416.83;1618858;87;21325;-58
2022/08/29 14:54:01;;;;;;;13.70;6.35;;;;;;;30.29;40.47;100413.82;1619217;88;21383;-59
2022/08/29 14:57:06;;;;;;;9.10;6.10;;;;;;;30.28;40.52;100416.39;1635819;86;21269;-59